GOV weather

Grayling Army Air Field
Grayling, Michigan, United States

Public forecast

Using degrees Fahrenheit for public forecast. Weather courtesy of forecast.io.

Current aviation weather report (METAR) for Grayling Army Air Field

Retrieved 2019/10/16 05:03 UTC (56 minutes ago):

KGOV 160503Z AUTO 00000KT 9SM OVC009 07/07 A2959 RMK AO2 LTG DSNT S OVC V BKN SLP032

Closest aviation forecast (TAF) to Grayling Army Air Field

Closest forecast is Cherry Capital Airport, 36.6 nm (67.8 km) W. Retrieved 2019-10-16 00:24 UTC (6 hours ago):

TAF KTVC 152322Z 1600/1624 09008KT P6SM -SHRA VCTS SCT025 OVC035CB FM160100 11007KT P6SM -SHRA VCTS OVC022CB FM160200 13007KT P6SM -SHRA OVC016 FM160400 17007KT P6SM VCSH OVC010 FM160900 27006KT P6SM -SHRA OVC011 FM161100 31010KT P6SM -SHRA OVC008 FM161300 33014G27KT P6SM -SHRA OVC011 FM162300 34017G31KT P6SM -SHRA OVC020